Time;durP1;ratioP1;P1;durP2;ratioP2;P2;SDS_P1;SDS_P2;PMS_P1;PMS_P2;Temp;Humidity;BMP_temperature;BMP_pressure;BME280_temperature;BME280_humidity;BME280_pressure;Samples;Min_cycle;Max_cycle;Signal;HPM_P1;HPM_P2
2023/10/28 00:00:17;;;;;;;6.68;1.30;;;;;;;19.20;57.01;92949.16;5042897;28;20022;-84
2023/10/28 00:02:45;;;;;;;4.30;0.88;;;;;;;19.07;55.46;92915.63;5043103;28;20025;-85
2023/10/28 00:05:11;;;;;;;2.65;0.80;;;;;;;19.16;53.75;92953.03;5043672;28;20018;-85
2023/10/28 00:07:36;;;;;;;3.35;0.88;;;;;;;19.38;52.40;92930.19;5042956;28;20075;-81
2023/10/28 00:10:03;;;;;;;3.80;0.77;;;;;;;19.52;52.72;92961.03;5045412;28;20025;-81
2023/10/28 00:12:28;;;;;;;2.22;0.90;;;;;;;19.54;52.57;92942.50;5045784;28;20045;-82
2023/10/28 00:14:54;;;;;;;11.75;0.80;;;;;;;19.60;52.81;92965.25;5045912;28;20030;-81
2023/10/28 00:17:19;;;;;;;4.75;0.90;;;;;;;19.59;52.72;92948.25;5046018;28;20021;-81
2023/10/28 00:19:46;;;;;;;4.78;0.95;;;;;;;19.62;52.24;92949.41;5045782;28;20327;-82
2023/10/28 00:22:12;;;;;;;2.10;0.70;;;;;;;19.67;52.13;92948.25;5045794;28;20017;-81
2023/10/28 00:24:38;;;;;;;2.58;0.90;;;;;;;19.64;52.41;92955.19;5045730;28;20068;-81
2023/10/28 00:27:04;;;;;;;1.70;0.70;;;;;;;19.69;51.77;92951.34;5045574;28;20025;-81
2023/10/28 00:29:29;;;;;;;2.17;0.50;;;;;;;19.75;51.42;92938.97;5045650;28;20021;-80
2023/10/28 00:31:55;;;;;;;1.00;0.60;;;;;;;19.80;51.43;92933.94;5045430;28;20031;-81
2023/10/28 00:34:20;;;;;;;3.45;0.70;;;;;;;19.83;51.06;92943.94;5045386;28;20040;-81
2023/10/28 00:36:46;;;;;;;3.10;0.95;;;;;;;19.84;52.07;92956.31;5045547;28;20060;-81
2023/10/28 00:39:12;;;;;;;1.95;0.70;;;;;;;19.81;50.88;92951.69;5045563;28;20024;-81
2023/10/28 00:41:37;;;;;;;1.63;0.52;;;;;;;19.86;51.15;92974.84;5045358;28;20052;-80
2023/10/28 00:44:04;;;;;;;2.75;0.60;;;;;;;19.89;51.17;92960.53;5045209;28;20025;-81
2023/10/28 00:46:30;;;;;;;4.55;0.95;;;;;;;19.89;51.54;92962.47;5044227;28;20021;-81
2023/10/28 00:48:55;;;;;;;2.50;0.75;;;;;;;19.93;51.65;92963.22;5044026;28;20032;-81
2023/10/28 00:51:21;;;;;;;5.75;0.60;;;;;;;19.88;51.41;92966.34;5044884;28;20033;-80
2023/10/28 00:53:47;;;;;;;4.60;1.42;;;;;;;19.88;51.75;92958.22;5044233;28;20029;-80
2023/10/28 00:56:13;;;;;;;3.55;1.20;;;;;;;19.83;51.70;92986.44;5044053;28;20029;-79
2023/10/28 00:58:42;;;;;;;4.53;1.08;;;;;;;19.86;51.84;92958.59;5045677;28;20316;-79
2023/10/28 01:01:10;;;;;;;4.22;0.90;;;;;;;19.86;51.95;92965.97;5045058;28;20037;-78
2023/10/28 01:03:35;;;;;;;2.15;0.80;;;;;;;19.78;52.39;92957.09;5045539;28;20069;-78
2023/10/28 01:06:01;;;;;;;1.98;0.70;;;;;;;19.74;52.69;92957.13;5044989;28;20029;-79
2023/10/28 01:08:26;;;;;;;3.00;0.93;;;;;;;19.71;52.80;92978.78;5044813;28;20312;-79
2023/10/28 01:10:52;;;;;;;6.63;1.25;;;;;;;19.68;53.29;92952.47;5044808;28;20084;-79
2023/10/28 01:13:18;;;;;;;2.90;1.17;;;;;;;19.67;53.43;92970.63;5044766;28;20093;-78
2023/10/28 01:15:43;;;;;;;7.88;1.00;;;;;;;19.64;53.65;92979.53;5046133;28;20359;-78
2023/10/28 01:18:10;;;;;;;5.00;1.10;;;;;;;19.64;53.80;92950.56;5045514;28;20045;-78
2023/10/28 01:20:35;;;;;;;3.67;1.00;;;;;;;19.59;52.49;92961.78;5044649;28;20025;-77
2023/10/28 01:23:01;;;;;;;3.60;1.38;;;;;;;19.55;53.47;92990.00;5044452;28;20358;-77
2023/10/28 01:25:27;;;;;;;4.97;0.80;;;;;;;19.44;53.10;92968.41;5044515;28;20236;-77
2023/10/28 01:27:53;;;;;;;7.60;0.95;;;;;;;19.41;53.55;92994.25;5044688;28;20051;-79
2023/10/28 01:30:18;;;;;;;1.83;0.90;;;;;;;19.40;54.35;92992.72;5045012;28;20063;-78
2023/10/28 01:32:44;;;;;;;3.25;0.80;;;;;;;19.42;53.54;92984.25;5044907;28;20390;-79
2023/10/28 01:35:10;;;;;;;4.28;0.80;;;;;;;19.41;53.20;92975.34;5045133;28;20025;-78
2023/10/28 01:37:37;;;;;;;2.58;0.90;;;;;;;19.42;53.41;92979.59;5044179;28;20024;-78
2023/10/28 01:40:09;;;;;;;6.78;1.02;;;;;;;19.45;53.34;92981.50;5044151;28;20244;-80
2023/10/28 01:42:34;;;;;;;;;;;;;;;19.43;53.35;92964.16;5044739;28;20018;-80
2023/10/28 01:45:00;;;;;;;3.55;1.35;;;;;;;19.35;53.53;92968.03;5044414;28;19911;-80
2023/10/28 01:47:26;;;;;;;5.85;1.45;;;;;;;19.31;53.52;92967.28;5044131;28;20017;-80
2023/10/28 01:49:51;;;;;;;5.22;1.00;;;;;;;19.35;53.40;92979.59;5044219;28;20036;-80
2023/10/28 01:52:18;;;;;;;5.70;0.93;;;;;;;19.35;52.94;92970.72;5044073;28;20021;-80
2023/10/28 01:54:44;;;;;;;6.82;1.15;;;;;;;19.34;52.82;92974.63;5043058;28;20040;-80
2023/10/28 01:57:10;;;;;;;2.33;0.85;;;;;;;19.30;52.99;92984.66;5044191;28;20024;-80
2023/10/28 01:59:38;;;;;;;3.53;1.00;;;;;;;19.28;52.90;92968.81;5042858;28;20025;-81
2023/10/28 02:02:05;;;;;;;2.55;0.75;;;;;;;19.27;52.18;92967.28;5043989;28;20037;-80
2023/10/28 02:04:31;;;;;;;3.22;0.85;;;;;;;19.30;51.51;92971.16;5042829;28;20032;-82
2023/10/28 02:06:58;;;;;;;2.22;0.60;;;;;;;19.35;50.77;92976.91;5042827;28;20324;-82
2023/10/28 02:09:23;;;;;;;8.77;1.02;;;;;;;19.38;50.88;92980.78;5043773;28;20021;-83
2023/10/28 02:11:52;;;;;;;2.08;0.43;;;;;;;19.43;50.54;92983.06;5043907;28;20223;-83
2023/10/28 02:14:17;;;;;;;1.88;0.75;;;;;;;19.41;51.12;92988.84;5043993;28;20029;-83
2023/10/28 02:16:43;;;;;;;3.78;0.93;;;;;;;19.35;51.37;92979.59;5044076;28;20267;-82
2023/10/28 02:19:08;;;;;;;2.63;1.08;;;;;;;19.33;51.84;92987.31;5042491;28;20344;-82
2023/10/28 02:21:33;;;;;;;4.80;1.00;;;;;;;19.33;51.13;92995.44;5043751;28;20900;-82
2023/10/28 02:24:00;;;;;;;2.13;0.60;;;;;;;19.27;51.40;93005.09;5043916;28;20025;-82
2023/10/28 02:26:25;;;;;;;3.70;0.90;;;;;;;19.32;51.72;93002.00;5043788;28;20021;-81
2023/10/28 02:28:51;;;;;;;5.25;0.93;;;;;;;19.35;51.86;93000.44;5043720;28;20029;-80
2023/10/28 02:31:17;;;;;;;5.93;0.95;;;;;;;19.33;51.06;93000.06;5043354;28;20021;-79
2023/10/28 02:33:42;;;;;;;10.27;1.05;;;;;;;19.34;51.24;93012.44;5043055;28;20029;-79
2023/10/28 02:36:08;;;;;;;5.03;1.25;;;;;;;19.30;51.21;93008.97;5043500;28;20030;-79
2023/10/28 02:38:34;;;;;;;3.40;0.95;;;;;;;19.33;51.33;93008.19;5043402;28;20056;-79
2023/10/28 02:41:00;;;;;;;5.13;1.25;;;;;;;19.34;50.80;93010.50;5043291;28;20025;-79
2023/10/28 02:43:25;;;;;;;5.63;2.58;;;;;;;19.40;50.71;93000.06;5042380;28;20021;-79
2023/10/28 02:45:51;;;;;;;3.58;0.98;;;;;;;19.39;50.70;92996.56;5043503;28;20029;-77
2023/10/28 02:48:16;;;;;;;6.78;0.90;;;;;;;19.44;50.86;92995.44;5043015;28;20216;-78
2023/10/28 02:50:42;;;;;;;2.67;0.73;;;;;;;19.42;50.69;92989.66;5042047;28;20021;-78
2023/10/28 02:53:07;;;;;;;5.35;1.20;;;;;;;19.45;49.83;92994.25;5042968;28;20311;-78
2023/10/28 02:55:36;;;;;;;5.13;0.90;;;;;;;19.47;49.13;92996.56;5043168;28;20029;-78
2023/10/28 02:58:02;;;;;;;9.57;1.42;;;;;;;19.50;49.41;93003.88;5043212;28;20017;-82
2023/10/28 03:00:28;;;;;;;3.72;0.70;;;;;;;19.48;49.35;92998.91;5043464;28;20049;-82
2023/10/28 03:02:55;;;;;;;3.58;0.90;;;;;;;19.52;49.29;93006.97;5042992;28;20094;-81
2023/10/28 03:05:24;;;;;;;9.77;1.25;;;;;;;19.34;51.29;93010.50;5043190;28;20029;-82
2023/10/28 03:07:50;;;;;;;5.53;0.98;;;;;;;19.22;51.56;93008.97;5042292;28;20014;-83
2023/10/28 03:10:16;;;;;;;5.57;1.45;;;;;;;19.07;54.52;93017.47;5043246;28;20030;-83
2023/10/28 03:12:41;;;;;;;5.93;1.15;;;;;;;18.82;53.16;93018.25;5043132;28;20045;-82
2023/10/28 03:15:09;;;;;;;3.17;1.15;;;;;;;18.77;53.47;93011.28;5042161;28;20037;-83
2023/10/28 03:17:34;;;;;;;7.35;1.48;;;;;;;18.72;55.66;93014.34;5043703;28;20032;-83
2023/10/28 03:20:00;;;;;;;7.45;1.33;;;;;;;18.45;55.76;93017.41;5043148;28;20046;-83
2023/10/28 03:22:25;;;;;;;9.82;2.53;;;;;;;18.24;58.67;93018.13;5042042;28;20025;-84
2023/10/28 03:24:51;;;;;;;7.22;1.98;;;;;;;18.12;60.20;93018.50;5041893;28;20025;-84
2023/10/28 03:27:17;;;;;;;8.70;1.60;;;;;;;17.93;60.85;93021.50;5042177;28;20025;-80
2023/10/28 03:29:45;;;;;;;7.25;2.10;;;;;;;17.83;61.42;93012.25;5041967;28;20029;-80
2023/10/28 03:32:11;;;;;;;11.88;2.10;;;;;;;17.65;62.43;93022.91;5042591;28;20048;-83
2023/10/28 03:34:36;;;;;;;9.27;2.30;;;;;;;17.51;63.26;93020.91;5042803;28;20032;-84
2023/10/28 03:37:02;;;;;;;3.72;1.63;;;;;;;17.37;63.86;93045.84;5042981;28;20049;-84
2023/10/28 03:39:28;;;;;;;7.30;2.17;;;;;;;17.25;64.34;93024.59;5043251;28;20037;-84
2023/10/28 03:41:53;;;;;;;7.47;2.20;;;;;;;17.01;65.72;93036.72;5043113;28;20022;-83
2023/10/28 03:44:19;;;;;;;8.57;2.40;;;;;;;16.83;66.54;93037.38;5045372;28;20210;-84
2023/10/28 03:46:45;;;;;;;9.27;2.30;;;;;;;16.78;67.06;93044.97;5046997;28;20021;-82
2023/10/28 03:49:11;;;;;;;9.45;2.10;;;;;;;16.69;67.51;93033.75;5046313;28;20052;-83
2023/10/28 03:51:38;;;;;;;11.07;2.33;;;;;;;16.61;67.24;93041.75;5046386;28;20025;-81
2023/10/28 03:54:04;;;;;;;13.40;2.15;;;;;;;16.61;67.71;93052.53;5046340;28;20100;-81
2023/10/28 03:56:30;;;;;;;6.47;1.77;;;;;;;16.60;67.76;93044.81;5046283;28;20045;-78
2023/10/28 03:58:57;;;;;;;6.78;1.90;;;;;;;16.46;67.33;93040.06;5045497;28;20025;-78
2023/10/28 04:01:23;;;;;;;6.57;1.85;;;;;;;16.57;67.45;93046.34;5046045;28;20021;-78
2023/10/28 04:03:49;;;;;;;6.28;1.70;;;;;;;16.60;68.16;93052.88;5046744;28;20296;-86
2023/10/28 04:06:15;;;;;;;6.28;1.95;;;;;;;16.61;68.11;93063.28;5046669;28;20021;-76
2023/10/28 04:08:40;;;;;;;5.68;1.67;;;;;;;16.61;68.26;93081.34;5046068;28;20067;-76
2023/10/28 04:11:06;;;;;;;6.95;2.45;;;;;;;16.60;69.00;93077.88;5045738;28;20066;-76
2023/10/28 04:13:32;;;;;;;5.40;2.17;;;;;;;16.57;69.35;93065.16;5045753;28;20032;-76
2023/10/28 04:15:57;;;;;;;8.68;1.77;;;;;;;16.46;65.39;93045.44;5045787;28;20025;-76
2023/10/28 04:18:22;;;;;;;7.55;1.50;;;;;;;16.62;65.99;93062.13;5045642;28;20053;-76
2023/10/28 04:20:48;;;;;;;9.02;2.22;;;;;;;16.71;67.34;93077.19;5045380;28;20025;-77
2023/10/28 04:23:14;;;;;;;9.75;2.05;;;;;;;16.72;68.38;93057.22;5046216;28;20270;-79
2023/10/28 04:25:39;;;;;;;4.72;2.13;;;;;;;16.67;68.83;93065.63;5045890;28;20029;-78
2023/10/28 04:28:04;;;;;;;11.88;2.42;;;;;;;16.56;69.51;93055.53;5045747;28;20017;-78
2023/10/28 04:30:30;;;;;;;7.95;2.40;;;;;;;16.48;69.31;93064.69;5045767;28;20066;-78
2023/10/28 04:32:55;;;;;;;16.02;2.78;;;;;;;16.47;68.86;93068.53;5044494;28;20038;-77
2023/10/28 04:35:21;;;;;;;9.45;2.47;;;;;;;16.50;69.19;93075.09;5045621;28;20319;-78
2023/10/28 04:37:46;;;;;;;8.65;2.40;;;;;;;16.47;69.57;93079.28;5045843;28;20025;-80
2023/10/28 04:40:12;;;;;;;9.50;1.70;;;;;;;16.39;68.08;93069.59;5045955;28;20067;-78
2023/10/28 04:42:38;;;;;;;11.82;2.47;;;;;;;16.38;69.07;93093.00;5045725;28;20040;-79
2023/10/28 04:45:06;;;;;;;8.23;2.15;;;;;;;16.28;69.56;93087.53;5044419;28;20327;-79
2023/10/28 04:47:32;;;;;;;12.27;2.58;;;;;;;16.33;69.61;93087.97;5045405;28;20039;-79
2023/10/28 04:49:58;;;;;;;12.60;2.95;;;;;;;16.31;69.93;93086.81;5045324;28;20021;-86
2023/10/28 04:52:23;;;;;;;13.90;4.10;;;;;;;16.31;70.21;93100.25;5045295;28;20021;-85
2023/10/28 04:54:49;;;;;;;10.13;2.40;;;;;;;16.30;71.00;93094.06;5045112;28;20193;-85
2023/10/28 04:57:14;;;;;;;9.05;2.28;;;;;;;16.31;70.84;93081.44;5045328;28;20021;-80
2023/10/28 04:59:40;;;;;;;6.18;2.30;;;;;;;16.25;70.78;93103.25;5046055;28;20021;-80
2023/10/28 05:02:06;;;;;;;13.18;2.30;;;;;;;16.25;71.29;93094.41;5045254;28;20029;-81
2023/10/28 05:04:31;;;;;;;7.80;2.35;;;;;;;16.21;71.32;93098.97;5045154;28;20033;-82
2023/10/28 05:06:57;;;;;;;6.47;2.15;;;;;;;16.20;71.36;93108.16;5045286;28;20021;-80
2023/10/28 05:09:22;;;;;;;6.78;2.30;;;;;;;16.20;71.39;93108.97;5045222;28;20024;-80
2023/10/28 05:11:53;;;;;;;7.88;2.30;;;;;;;16.22;72.02;93105.88;5044831;28;20020;-79
2023/10/28 05:14:20;;;;;;;7.15;2.13;;;;;;;16.22;71.82;93113.97;5044669;28;20032;-78
2023/10/28 05:16:45;;;;;;;6.22;2.33;;;;;;;16.24;71.96;93109.78;5044771;28;20028;-78
2023/10/28 05:19:11;;;;;;;3.92;2.08;;;;;;;16.24;71.70;93131.28;5044902;28;20049;-79
2023/10/28 05:21:37;;;;;;;8.60;2.38;;;;;;;16.20;71.96;93119.72;5043467;28;20068;-78
2023/10/28 05:24:03;;;;;;;8.35;2.60;;;;;;;16.19;72.12;93138.91;5044691;28;20093;-82
2023/10/28 05:26:29;;;;;;;8.52;2.53;;;;;;;16.23;72.15;93135.09;5043336;28;20204;-82
2023/10/28 05:28:54;;;;;;;6.35;2.05;;;;;;;16.28;72.00;93130.53;5044465;28;20076;-82
2023/10/28 05:31:21;;;;;;;9.98;2.45;;;;;;;16.18;72.27;93143.50;5044501;28;20048;-81
2023/10/28 05:33:47;;;;;;;9.60;1.85;;;;;;;16.16;72.17;93137.72;5044633;28;20196;-82
2023/10/28 05:36:12;;;;;;;7.10;2.03;;;;;;;16.22;71.60;93155.06;5044381;28;20025;-82
2023/10/28 05:38:38;;;;;;;8.48;2.17;;;;;;;16.27;71.80;93167.41;5044574;28;20032;-82
2023/10/28 05:41:03;;;;;;;6.28;2.42;;;;;;;16.30;71.67;93161.28;5044267;28;20033;-83
2023/10/28 05:43:28;;;;;;;6.68;2.10;;;;;;;16.39;71.65;93158.34;5043069;28;20067;-83
2023/10/28 05:45:54;;;;;;;9.65;2.83;;;;;;;16.47;71.41;93159.22;5042667;28;20022;-83
2023/10/28 05:48:19;;;;;;;7.85;2.40;;;;;;;16.52;71.15;93165.03;5044100;28;20231;-83
2023/10/28 05:50:45;;;;;;;5.25;2.47;;;;;;;16.57;70.71;93180.84;5044337;28;20303;-82
2023/10/28 05:53:10;;;;;;;8.90;2.20;;;;;;;16.57;71.09;93182.78;5044193;28;20037;-81
2023/10/28 05:55:35;;;;;;;7.55;2.40;;;;;;;16.63;71.04;93187.44;5044134;28;20302;-80
2023/10/28 05:58:01;;;;;;;7.20;2.42;;;;;;;16.67;70.92;93184.81;5043991;28;20029;-84
2023/10/28 06:00:28;;;;;;;6.70;2.40;;;;;;;16.71;70.60;93196.38;5044049;28;20029;-84
2023/10/28 06:02:53;;;;;;;7.03;2.15;;;;;;;16.79;69.99;93198.00;5044289;28;20029;-84
2023/10/28 06:05:19;;;;;;;10.65;2.33;;;;;;;16.83;70.23;93198.84;5043879;28;20029;-85
2023/10/28 06:07:47;;;;;;;18.35;5.10;;;;;;;16.95;70.13;93205.88;5043835;28;20022;-85
2023/10/28 06:10:16;;;;;;;7.38;2.70;;;;;;;17.02;70.07;93211.34;5044174;28;20148;-81
2023/10/28 06:12:41;;;;;;;5.55;2.17;;;;;;;17.08;69.63;93200.25;5043897;28;20092;-82
2023/10/28 06:15:07;;;;;;;6.32;2.08;;;;;;;17.17;69.88;93212.25;5043720;28;20029;-81
2023/10/28 06:17:34;;;;;;;6.18;2.38;;;;;;;17.17;69.67;93204.19;5043348;28;20189;-81
2023/10/28 06:20:00;;;;;;;13.80;2.95;;;;;;;17.21;69.62;93220.38;5043569;28;20053;-81
2023/10/28 06:22:26;;;;;;;5.43;1.92;;;;;;;17.28;69.27;93216.97;5043274;28;20044;-84
2023/10/28 06:24:53;;;;;;;13.63;3.08;;;;;;;17.32;69.01;93213.19;5043679;28;20032;-84
2023/10/28 06:27:18;;;;;;;11.85;2.03;;;;;;;17.35;68.25;93238.59;5043344;28;20060;-83
2023/10/28 06:29:44;;;;;;;6.40;2.40;;;;;;;17.31;68.52;93229.69;5042183;28;20028;-83
2023/10/28 06:32:09;;;;;;;10.80;2.50;;;;;;;17.34;68.49;93232.44;5043551;28;20044;-84
2023/10/28 06:34:35;;;;;;;11.80;2.22;;;;;;;17.39;69.30;93240.16;5043166;28;20033;-84
2023/10/28 06:37:01;;;;;;;7.55;1.88;;;;;;;17.38;68.96;93238.63;5042445;28;20029;-80
2023/10/28 06:39:26;;;;;;;13.05;2.95;;;;;;;17.45;68.72;93244.06;5043123;28;20028;-80
2023/10/28 06:41:52;;;;;;;19.05;2.88;;;;;;;17.51;68.30;93252.59;5043479;28;20013;-83
2023/10/28 06:44:19;;;;;;;14.23;3.05;;;;;;;17.55;68.27;93256.09;5043126;28;20055;-80
2023/10/28 06:46:45;;;;;;;12.00;2.25;;;;;;;17.67;68.12;93257.75;5042825;28;20021;-84
2023/10/28 06:49:11;;;;;;;12.48;2.97;;;;;;;17.73;67.44;93269.72;5043194;28;20216;-84
2023/10/28 06:51:36;;;;;;;6.55;2.75;;;;;;;17.78;67.76;93268.59;5042896;28;20036;-73
2023/10/28 06:54:02;;;;;;;11.48;3.15;;;;;;;17.87;67.50;93285.28;5042793;28;20280;-73
2023/10/28 06:56:28;;;;;;;8.50;2.53;;;;;;;17.95;68.12;93281.50;5041453;28;20036;-73
2023/10/28 06:58:54;;;;;;;12.48;2.58;;;;;;;18.06;66.77;93278.09;5042577;28;20028;-77
2023/10/28 07:01:20;;;;;;;8.02;2.55;;;;;;;18.14;66.43;93283.16;5041447;28;20017;-75
2023/10/28 07:03:45;;;;;;;14.90;4.40;;;;;;;18.18;66.15;93278.56;5042609;28;20342;-73
2023/10/28 07:06:14;;;;;;;9.10;2.53;;;;;;;18.27;65.64;93285.56;5042764;28;20024;-75
2023/10/28 07:08:43;;;;;;;5.43;1.90;;;;;;;18.28;65.54;93292.50;5042742;28;20021;-71
2023/10/28 07:11:11;;;;;;;10.80;2.13;;;;;;;18.27;65.50;93289.03;5042738;28;20033;-76
2023/10/28 07:13:36;;;;;;;9.70;2.63;;;;;;;18.30;65.59;93287.50;5042664;28;20025;-75
2023/10/28 07:16:05;;;;;;;13.40;2.70;;;;;;;18.40;64.87;93297.59;5042436;28;20231;-72
2023/10/28 07:18:31;;;;;;;14.85;2.38;;;;;;;18.42;64.74;93298.00;5043349;28;20053;-69
2023/10/28 07:20:57;;;;;;;6.13;1.95;;;;;;;18.48;64.63;93296.50;5045446;28;20075;-70
2023/10/28 07:23:26;;;;;;;5.13;2.25;;;;;;;18.49;65.45;93299.97;5046479;28;20219;-68
2023/10/28 07:25:53;;;;;;;7.47;2.67;;;;;;;18.62;63.50;93301.97;5046779;28;20017;-76
2023/10/28 07:28:18;;;;;;;10.65;2.00;;;;;;;18.65;62.71;93306.59;5046562;28;20047;-72
2023/10/28 07:30:45;;;;;;;11.73;2.05;;;;;;;18.70;62.86;93296.59;5046635;28;20029;-75
2023/10/28 07:33:11;;;;;;;10.23;2.17;;;;;;;18.81;62.65;93303.63;5046153;28;20056;-74
2023/10/28 07:35:36;;;;;;;10.32;2.45;;;;;;;18.88;62.99;93304.81;5046496;28;20036;-73
2023/10/28 07:38:01;;;;;;;12.40;2.53;;;;;;;18.97;62.39;93307.94;5045998;28;20080;-73
2023/10/28 07:40:27;;;;;;;10.27;3.35;;;;;;;19.04;61.69;93307.97;5046010;28;20029;-73
2023/10/28 07:42:52;;;;;;;10.70;2.15;;;;;;;19.07;61.60;93309.94;5044676;28;20074;-72
2023/10/28 07:45:17;;;;;;;9.30;1.92;;;;;;;19.16;61.56;93301.47;5046024;28;20703;-77
2023/10/28 07:47:43;;;;;;;8.27;2.35;;;;;;;19.23;62.03;93320.41;5046228;28;20029;-73
2023/10/28 07:50:09;;;;;;;13.40;2.60;;;;;;;19.32;61.14;93320.06;5044832;28;20056;-74
2023/10/28 07:52:34;;;;;;;7.80;3.42;;;;;;;19.33;61.14;93314.25;5045852;28;20089;-73
2023/10/28 07:55:01;;;;;;;8.35;2.45;;;;;;;19.42;60.97;93314.69;5044374;28;20029;-70
2023/10/28 07:57:26;;;;;;;11.20;2.80;;;;;;;19.49;61.01;93305.81;5045825;28;20021;-69
2023/10/28 07:59:53;;;;;;;11.10;3.40;;;;;;;19.59;60.72;93313.16;5045905;28;20068;-73
2023/10/28 08:02:18;;;;;;;9.95;3.08;;;;;;;19.67;60.61;93330.19;5045858;28;20029;-73
2023/10/28 08:04:44;;;;;;;8.02;2.50;;;;;;;19.77;59.56;93326.75;5045781;28;20021;-72
2023/10/28 08:07:09;;;;;;;6.03;2.40;;;;;;;19.81;60.18;93316.72;5045846;28;20037;-72
2023/10/28 08:09:35;;;;;;;30.05;6.15;;;;;;;19.90;59.19;93329.84;5045721;28;20219;-72
2023/10/28 08:12:00;;;;;;;55.72;12.55;;;;;;;19.97;59.11;93326.41;5045573;28;20029;-72
2023/10/28 08:14:26;;;;;;;46.95;14.18;;;;;;;20.08;58.37;93319.03;5045736;28;20029;-72
2023/10/28 08:16:51;;;;;;;25.42;8.50;;;;;;;20.15;58.11;93327.19;5045386;28;20319;-72
2023/10/28 08:19:17;;;;;;;24.42;4.55;;;;;;;20.18;58.49;93318.28;5045452;28;20060;-72
2023/10/28 08:21:42;;;;;;;11.20;3.20;;;;;;;20.26;57.76;93321.75;5045571;28;20280;-72
2023/10/28 08:24:11;;;;;;;11.50;2.72;;;;;;;20.33;57.64;93335.25;5045345;28;20025;-73
2023/10/28 08:26:37;;;;;;;13.48;2.85;;;;;;;20.40;57.29;93331.81;5045292;28;20029;-73
2023/10/28 08:29:02;;;;;;;12.55;3.63;;;;;;;20.43;56.90;93331.00;5045382;28;20387;-73
2023/10/28 08:31:28;;;;;;;11.73;3.30;;;;;;;20.50;56.71;93330.25;5043960;28;20033;-73
2023/10/28 08:33:53;;;;;;;8.32;2.15;;;;;;;20.62;55.87;93338.00;5045187;28;20026;-73
2023/10/28 08:36:19;;;;;;;11.65;2.58;;;;;;;20.73;55.72;93346.09;5044956;28;20030;-72
2023/10/28 08:38:45;;;;;;;6.15;1.80;;;;;;;20.80;55.26;93338.75;5044812;28;20029;-73
2023/10/28 08:41:11;;;;;;;6.88;1.92;;;;;;;20.91;54.41;93336.00;5045409;28;20324;-73
2023/10/28 08:43:36;;;;;;;13.48;3.50;;;;;;;20.99;53.99;93337.53;5045019;28;20021;-73
2023/10/28 08:46:04;;;;;;;8.55;3.55;;;;;;;21.12;53.95;93347.94;5045069;28;20227;-76
2023/10/28 08:48:31;;;;;;;8.05;2.63;;;;;;;21.14;53.64;93343.66;5043807;28;20025;-75
2023/10/28 08:51:00;;;;;;;11.48;2.53;;;;;;;21.23;53.54;93348.69;5044848;28;20056;-75
2023/10/28 08:53:25;;;;;;;9.57;2.60;;;;;;;21.31;53.13;93343.97;5044765;28;20038;-76
2023/10/28 08:55:51;;;;;;;7.93;2.42;;;;;;;21.38;52.77;93341.25;5045450;28;20099;-82
2023/10/28 08:58:19;;;;;;;11.05;3.13;;;;;;;21.42;52.88;93336.59;5045553;28;20080;-82
2023/10/28 09:00:59;;;;;;;15.50;2.55;;;;;;;21.51;52.31;93341.59;5044834;28;20025;-80
2023/10/28 09:03:26;;;;;;;8.13;2.03;;;;;;;21.58;51.88;93349.72;5040769;28;20034;-77
2023/10/28 09:05:52;;;;;;;17.08;3.33;;;;;;;21.67;51.41;93347.34;5043209;28;20033;-77
2023/10/28 09:08:21;;;;;;;7.95;2.95;;;;;;;21.65;51.27;93352.38;5041999;28;20031;-77
2023/10/28 09:10:46;;;;;;;8.82;2.55;;;;;;;21.64;51.34;93350.84;5043041;28;20273;-77
2023/10/28 09:13:13;;;;;;;8.60;2.60;;;;;;;21.68;51.36;93346.19;5043295;28;20026;-77
2023/10/28 09:15:39;;;;;;;10.27;2.28;;;;;;;21.71;51.19;93345.38;5043262;28;20025;-77
2023/10/28 09:18:04;;;;;;;13.55;2.88;;;;;;;21.75;50.52;93345.38;5043509;28;20222;-77
2023/10/28 09:20:30;;;;;;;7.60;2.22;;;;;;;21.76;50.13;93352.34;5043969;28;20079;-77
2023/10/28 09:22:55;;;;;;;9.82;2.58;;;;;;;21.83;50.62;93341.44;5042749;28;20250;-77
2023/10/28 09:25:21;;;;;;;7.78;2.60;;;;;;;21.92;50.53;93341.00;5041680;28;20025;-77
2023/10/28 09:27:47;;;;;;;7.55;2.17;;;;;;;21.93;50.12;93347.97;5041664;28;20096;-77
2023/10/28 09:30:13;;;;;;;11.65;2.53;;;;;;;21.99;50.19;93349.84;5041861;28;20064;-77
2023/10/28 09:32:39;;;;;;;8.10;1.75;;;;;;;22.01;48.78;93352.94;5041629;28;20219;-77
2023/10/28 09:35:05;;;;;;;8.35;2.50;;;;;;;22.05;48.73;93342.06;5041745;28;20100;-77
2023/10/28 09:37:35;;;;;;;12.82;2.35;;;;;;;22.09;49.32;93337.41;5041608;28;20029;-77
2023/10/28 09:40:08;;;;;;;6.32;2.10;;;;;;;22.16;49.37;93336.56;5044109;28;20022;-77
2023/10/28 09:42:36;;;;;;;12.00;2.50;;;;;;;22.23;48.86;93337.31;5043821;28;20026;-77
2023/10/28 09:45:06;;;;;;;5.53;2.13;;;;;;;22.31;48.40;93334.53;5044213;28;20028;-77
2023/10/28 09:47:43;;;;;;;12.77;1.90;;;;;;;22.38;48.06;93337.19;5044223;28;20032;-77
2023/10/28 09:50:12;;;;;;;12.98;2.15;;;;;;;22.43;46.92;93323.22;5044142;28;20365;-77
2023/10/28 09:52:43;;;;;;;8.88;1.90;;;;;;;22.37;46.25;93311.25;5043992;28;20026;-77
2023/10/28 09:55:11;;;;;;;7.30;1.60;;;;;;;22.47;45.03;93318.53;5044148;28;20025;-77
2023/10/28 09:57:39;;;;;;;6.22;1.27;;;;;;;22.48;41.77;93317.31;5043852;28;20068;-77
2023/10/28 10:00:09;;;;;;;10.15;2.15;;;;;;;22.42;42.13;93322.41;5044083;28;20211;-77
2023/10/28 10:02:56;;;;;;;9.52;1.58;;;;;;;22.48;41.56;93308.41;5043806;28;20096;-77
2023/10/28 10:05:33;;;;;;;5.60;1.27;;;;;;;22.60;41.59;93311.41;5043736;28;20227;-77
2023/10/28 10:07:59;;;;;;;3.92;1.42;;;;;;;22.75;41.34;93305.81;5043859;28;20036;-77
2023/10/28 10:10:25;;;;;;;5.95;1.80;;;;;;;22.93;40.60;93300.97;5043640;28;20021;-75
2023/10/28 10:13:01;;;;;;;9.02;1.33;;;;;;;23.10;40.58;93301.19;5043315;28;20315;-75
2023/10/28 10:15:31;;;;;;;8.98;1.63;;;;;;;23.26;40.85;93295.97;5043650;28;20021;-76
2023/10/28 10:18:08;;;;;;;9.57;2.08;;;;;;;23.41;39.41;93299.28;5043371;28;20025;-75
2023/10/28 10:20:35;;;;;;;5.13;1.65;;;;;;;23.51;38.71;93294.88;5043476;28;20076;-77
2023/10/28 10:23:04;;;;;;;9.30;1.45;;;;;;;23.68;37.85;93293.88;5042351;28;20018;-75
2023/10/28 10:25:36;;;;;;;11.32;1.70;;;;;;;23.80;36.75;93282.44;5043249;28;20021;-75
2023/10/28 10:28:12;;;;;;;7.18;1.23;;;;;;;23.90;36.99;93291.63;5043514;28;20223;-75
2023/10/28 10:30:37;;;;;;;9.23;1.60;;;;;;;23.97;36.17;93298.91;5043291;28;20271;-76
2023/10/28 10:33:03;;;;;;;8.80;1.35;;;;;;;24.07;36.23;93289.81;5043160;28;20033;-76
2023/10/28 10:35:31;;;;;;;8.00;1.83;;;;;;;24.20;36.29;93288.06;5043090;28;20028;-76
2023/10/28 10:38:08;;;;;;;10.55;2.17;;;;;;;24.38;35.61;93290.50;5042081;28;20258;-76
2023/10/28 10:40:49;;;;;;;10.07;1.60;;;;;;;24.57;34.42;93296.44;5043060;28;20113;-76
2023/10/28 10:43:20;;;;;;;11.45;1.80;;;;;;;24.71;33.72;93281.78;5043233;28;20088;-77
2023/10/28 10:45:45;;;;;;;4.25;1.15;;;;;;;24.74;33.37;93289.88;5042995;28;20025;-76
2023/10/28 10:48:11;;;;;;;7.65;1.48;;;;;;;24.74;33.04;93295.34;5043128;28;20033;-76
2023/10/28 10:50:37;;;;;;;7.00;1.27;;;;;;;24.74;33.15;93289.88;5041929;28;21427;-76
2023/10/28 10:53:06;;;;;;;10.02;1.30;;;;;;;24.71;33.03;93292.66;5042236;28;20029;-76
2023/10/28 10:55:32;;;;;;;17.25;2.15;;;;;;;24.71;33.76;93282.56;5042946;28;20335;-77
2023/10/28 10:57:58;;;;;;;3.97;1.33;;;;;;;24.75;32.70;93285.19;5042757;28;20032;-77
2023/10/28 11:00:24;;;;;;;6.88;1.33;;;;;;;24.75;32.09;93285.19;5042840;28;20025;-76
2023/10/28 11:02:50;;;;;;;6.32;1.55;;;;;;;24.57;32.30;93288.28;5042971;28;20249;-77
2023/10/28 11:05:17;;;;;;;8.15;1.10;;;;;;;24.58;33.10;93297.97;5042853;28;20224;-77
2023/10/28 11:07:43;;;;;;;7.38;1.33;;;;;;;24.63;32.72;93286.59;5042863;28;20263;-76
2023/10/28 11:10:10;;;;;;;4.22;1.10;;;;;;;24.65;31.91;93292.41;5042894;28;20018;-77
2023/10/28 11:12:39;;;;;;;4.32;1.05;;;;;;;24.45;31.43;93289.59;5042692;28;20219;-77
2023/10/28 11:15:06;;;;;;;6.07;1.30;;;;;;;24.42;32.60;93279.53;5042765;28;20303;-76
2023/10/28 11:17:32;;;;;;;5.18;1.48;;;;;;;24.50;33.20;93291.09;5042853;28;20101;-77
2023/10/28 11:20:03;;;;;;;6.38;1.88;;;;;;;24.63;33.84;93283.88;5042788;28;20033;-77
2023/10/28 11:22:28;;;;;;;4.85;1.25;;;;;;;24.68;33.02;93296.25;5042786;28;20072;-77
2023/10/28 11:24:55;;;;;;;3.08;1.50;;;;;;;24.77;31.59;93313.59;5042435;28;20363;-76
2023/10/28 11:27:23;;;;;;;4.55;0.90;;;;;;;24.59;30.33;93294.06;5042452;28;20056;-76